Newmansville, Illinois
Current Conditions -  °F | °C
As of 3:55 AM on Tuesday 21 Oct 2014 (Local Time) from KIJX Reporting Station
Clear Clear  
Wind Chill: 43°   Ceiling: Unl
Heat Index: 45°   Visibility: 10mi
Dew Point: 42°   Wind: 5mph
Humidity: 88%   Direction: 10°N
Pressure: 30.04"   Gusts: NA
Location:  39.9123°N, 90.0575°W
Report Text: KIJX 210855Z AUTO 01004KT 10SM CLR 07/06 A3004 RMK AO2 T00730055
Loading
Personal Weather Stations






























Interactive Weather Map
Tropical Storm Tracking
New forecast layout! Learn more

10-Day Weather Forecast

Advertisements
Track Severe Weather on mobile